sensor_id;sensor_type;location;lat;lon;timestamp;pressure;altitude;pressure_sealevel;temperature;humidity
71126;BME280;58785;55.566;38.058;2023-02-28T00:00:34;100806.00;;;-3.67;68.78
71126;BME280;58785;55.566;38.058;2023-02-28T00:03:00;100810.50;;;-3.74;68.67
71126;BME280;58785;55.566;38.058;2023-02-28T00:05:27;100793.31;;;-3.80;69.29
71126;BME280;58785;55.566;38.058;2023-02-28T00:07:53;100795.22;;;-3.86;68.96
71126;BME280;58785;55.566;38.058;2023-02-28T00:10:23;100780.53;;;-3.89;69.20
71126;BME280;58785;55.566;38.058;2023-02-28T00:12:50;100791.84;;;-3.91;69.21
71126;BME280;58785;55.566;38.058;2023-02-28T00:15:16;100775.69;;;-4.04;69.37
71126;BME280;58785;55.566;38.058;2023-02-28T00:17:43;100779.97;;;-4.01;69.59
71126;BME280;58785;55.566;38.058;2023-02-28T00:20:11;100762.94;;;-4.15;69.63
71126;BME280;58785;55.566;38.058;2023-02-28T00:22:39;100778.66;;;-4.18;69.42
71126;BME280;58785;55.566;38.058;2023-02-28T00:25:06;100763.34;;;-4.30;69.76
71126;BME280;58785;55.566;38.058;2023-02-28T00:27:36;100780.56;;;-4.24;69.27
71126;BME280;58785;55.566;38.058;2023-02-28T00:30:03;100773.69;;;-4.27;69.87
71126;BME280;58785;55.566;38.058;2023-02-28T00:32:31;100778.97;;;-4.30;69.86
71126;BME280;58785;55.566;38.058;2023-02-28T00:34:56;100778.13;;;-4.30;69.26
71126;BME280;58785;55.566;38.058;2023-02-28T00:37:23;100775.59;;;-4.35;69.60
71126;BME280;58785;55.566;38.058;2023-02-28T00:39:48;100772.16;;;-4.36;69.73
71126;BME280;58785;55.566;38.058;2023-02-28T00:42:14;100767.94;;;-4.41;69.38
71126;BME280;58785;55.566;38.058;2023-02-28T00:44:40;100757.69;;;-4.47;69.29
71126;BME280;58785;55.566;38.058;2023-02-28T00:47:06;100762.03;;;-4.48;69.81
71126;BME280;58785;55.566;38.058;2023-02-28T00:49:32;100764.66;;;-4.48;69.94
71126;BME280;58785;55.566;38.058;2023-02-28T00:51:57;100753.53;;;-4.54;69.86
71126;BME280;58785;55.566;38.058;2023-02-28T00:54:23;100758.00;;;-4.59;70.05
71126;BME280;58785;55.566;38.058;2023-02-28T00:56:49;100758.03;;;-4.63;70.04
71126;BME280;58785;55.566;38.058;2023-02-28T00:59:16;100752.06;;;-4.66;70.06
71126;BME280;58785;55.566;38.058;2023-02-28T01:01:43;100749.53;;;-4.69;70.32
71126;BME280;58785;55.566;38.058;2023-02-28T01:04:09;100741.84;;;-4.74;69.85
71126;BME280;58785;55.566;38.058;2023-02-28T01:06:35;100720.28;;;-4.79;70.16
71126;BME280;58785;55.566;38.058;2023-02-28T01:09:02;100730.63;;;-4.76;70.07
71126;BME280;58785;55.566;38.058;2023-02-28T01:11:27;100718.59;;;-4.80;70.40
71126;BME280;58785;55.566;38.058;2023-02-28T01:13:54;100723.78;;;-4.80;69.67
71126;BME280;58785;55.566;38.058;2023-02-28T01:16:19;100715.31;;;-4.88;70.32
71126;BME280;58785;55.566;38.058;2023-02-28T01:18:45;100712.69;;;-4.88;70.74
71126;BME280;58785;55.566;38.058;2023-02-28T01:21:14;100716.31;;;-4.95;70.80
71126;BME280;58785;55.566;38.058;2023-02-28T01:23:40;100711.16;;;-4.97;70.21
71126;BME280;58785;55.566;38.058;2023-02-28T01:26:07;100715.56;;;-4.99;70.49
71126;BME280;58785;55.566;38.058;2023-02-28T01:28:33;100702.75;;;-5.08;70.37
71126;BME280;58785;55.566;38.058;2023-02-28T01:30:59;100706.13;;;-5.04;70.06
71126;BME280;58785;55.566;38.058;2023-02-28T01:33:25;100708.81;;;-5.07;70.39
71126;BME280;58785;55.566;38.058;2023-02-28T01:36:00;100700.25;;;-5.11;70.34
71126;BME280;58785;55.566;38.058;2023-02-28T01:38:26;100684.81;;;-5.18;70.87
71126;BME280;58785;55.566;38.058;2023-02-28T01:40:52;100682.38;;;-5.26;70.48
71126;BME280;58785;55.566;38.058;2023-02-28T01:43:31;100688.38;;;-5.24;70.64
71126;BME280;58785;55.566;38.058;2023-02-28T01:45:58;100678.16;;;-5.32;70.51
71126;BME280;58785;55.566;38.058;2023-02-28T01:48:31;100688.66;;;-5.36;71.09
71126;BME280;58785;55.566;38.058;2023-02-28T01:51:01;100676.59;;;-5.39;70.58
71126;BME280;58785;55.566;38.058;2023-02-28T01:53:39;100663.72;;;-5.45;70.82
71126;BME280;58785;55.566;38.058;2023-02-28T01:56:08;100681.91;;;-5.45;70.95
71126;BME280;58785;55.566;38.058;2023-02-28T01:58:36;100675.03;;;-5.47;70.42
71126;BME280;58785;55.566;38.058;2023-02-28T02:01:02;100670.78;;;-5.52;70.91
71126;BME280;58785;55.566;38.058;2023-02-28T02:03:29;100667.38;;;-5.54;70.93
71126;BME280;58785;55.566;38.058;2023-02-28T02:05:55;100658.75;;;-5.56;70.66
71126;BME280;58785;55.566;38.058;2023-02-28T02:08:24;100663.13;;;-5.58;70.54
71126;BME280;58785;55.566;38.058;2023-02-28T02:10:56;100654.53;;;-5.60;70.72
71126;BME280;58785;55.566;38.058;2023-02-28T02:18:47;100652.88;;;-5.64;70.80
71126;BME280;58785;55.566;38.058;2023-02-28T02:24:32;100643.34;;;-5.63;70.93
71126;BME280;58785;55.566;38.058;2023-02-28T02:27:48;100635.63;;;-5.66;70.82
71126;BME280;58785;55.566;38.058;2023-02-28T02:30:18;100625.31;;;-5.69;70.81
71126;BME280;58785;55.566;38.058;2023-02-28T02:38:18;100612.41;;;-5.74;70.87
71126;BME280;58785;55.566;38.058;2023-02-28T02:41:03;100620.88;;;-5.66;71.05
71126;BME280;58785;55.566;38.058;2023-02-28T02:44:07;100613.94;;;-5.65;71.18
71126;BME280;58785;55.566;38.058;2023-02-28T02:46:33;100605.31;;;-5.66;70.88
71126;BME280;58785;55.566;38.058;2023-02-28T02:49:06;100601.00;;;-5.67;70.98
71126;BME280;58785;55.566;38.058;2023-02-28T02:51:34;100598.47;;;-5.71;70.89
71126;BME280;58785;55.566;38.058;2023-02-28T02:54:16;100588.09;;;-5.70;70.73
71126;BME280;58785;55.566;38.058;2023-02-28T02:56:45;100605.22;;;-5.63;70.79
71126;BME280;58785;55.566;38.058;2023-02-28T02:59:15;100597.47;;;-5.64;71.25
71126;BME280;58785;55.566;38.058;2023-02-28T03:01:49;100598.28;;;-5.62;70.72
71126;BME280;58785;55.566;38.058;2023-02-28T03:04:19;100588.66;;;-5.57;70.78
71126;BME280;58785;55.566;38.058;2023-02-28T03:06:45;100584.34;;;-5.58;70.60
71126;BME280;58785;55.566;38.058;2023-02-28T03:09:11;100563.66;;;-5.63;70.99
71126;BME280;58785;55.566;38.058;2023-02-28T03:11:37;100576.53;;;-5.57;70.78
71126;BME280;58785;55.566;38.058;2023-02-28T03:17:14;100569.69;;;-5.61;70.87
71126;BME280;58785;55.566;38.058;2023-02-28T03:22:52;100557.56;;;-5.62;71.03
71126;BME280;58785;55.566;38.058;2023-02-28T03:25:27;100562.69;;;-5.57;70.78
71126;BME280;58785;55.566;38.058;2023-02-28T03:28:21;100557.63;;;-5.63;71.24
71126;BME280;58785;55.566;38.058;2023-02-28T03:30:51;100534.38;;;-5.68;70.89
71126;BME280;58785;55.566;38.058;2023-02-28T03:33:23;100526.50;;;-5.65;71.20
71126;BME280;58785;55.566;38.058;2023-02-28T03:35:55;100540.25;;;-5.60;70.94
71126;BME280;58785;55.566;38.058;2023-02-28T03:41:19;100525.56;;;-5.62;71.17
71126;BME280;58785;55.566;38.058;2023-02-28T03:43:53;100510.88;;;-5.63;71.07
71126;BME280;58785;55.566;38.058;2023-02-28T03:46:23;100506.47;;;-5.60;71.26
71126;BME280;58785;55.566;38.058;2023-02-28T03:48:58;100502.97;;;-5.59;71.50
71126;BME280;58785;55.566;38.058;2023-02-28T03:51:28;100494.25;;;-5.56;70.83
71126;BME280;58785;55.566;38.058;2023-02-28T03:53:58;100486.38;;;-5.53;71.08
71126;BME280;58785;55.566;38.058;2023-02-28T03:56:37;100487.22;;;-5.53;71.40
71126;BME280;58785;55.566;38.058;2023-02-28T03:59:15;100474.41;;;-5.59;70.99
71126;BME280;58785;55.566;38.058;2023-02-28T04:01:48;100483.81;;;-5.55;71.57
71126;BME280;58785;55.566;38.058;2023-02-28T04:04:15;100467.56;;;-5.63;71.08
71126;BME280;58785;55.566;38.058;2023-02-28T04:06:42;100482.13;;;-5.56;71.15
71126;BME280;58785;55.566;38.058;2023-02-28T04:09:10;100476.91;;;-5.56;71.16
71126;BME280;58785;55.566;38.058;2023-02-28T04:11:38;100463.13;;;-5.58;71.60
71126;BME280;58785;55.566;38.058;2023-02-28T04:14:06;100460.44;;;-5.55;71.03
71126;BME280;58785;55.566;38.058;2023-02-28T04:16:32;100461.28;;;-5.54;71.52
71126;BME280;58785;55.566;38.058;2023-02-28T04:18:58;100447.63;;;-5.61;71.19
71126;BME280;58785;55.566;38.058;2023-02-28T04:21:38;100450.81;;;-5.50;71.19
71126;BME280;58785;55.566;38.058;2023-02-28T04:24:07;100450.81;;;-5.50;71.34
71126;BME280;58785;55.566;38.058;2023-02-28T04:26:35;100453.38;;;-5.48;71.20
71126;BME280;58785;55.566;38.058;2023-02-28T04:29:03;100459.41;;;-5.47;70.91
71126;BME280;58785;55.566;38.058;2023-02-28T04:31:29;100437.88;;;-5.53;71.16
71126;BME280;58785;55.566;38.058;2023-02-28T04:33:56;100449.78;;;-5.44;70.54
71126;BME280;58785;55.566;38.058;2023-02-28T04:36:22;100444.59;;;-5.44;70.89
71126;BME280;58785;55.566;38.058;2023-02-28T04:38:49;100444.53;;;-5.41;70.72
71126;BME280;58785;55.566;38.058;2023-02-28T04:41:15;100430.50;;;-5.35;70.71
71126;BME280;58785;55.566;38.058;2023-02-28T04:43:42;100432.16;;;-5.33;70.88
71126;BME280;58785;55.566;38.058;2023-02-28T04:46:08;100424.38;;;-5.33;70.25
71126;BME280;58785;55.566;38.058;2023-02-28T04:52:14;100420.44;;;-5.15;69.88
71126;BME280;58785;55.566;38.058;2023-02-28T04:54:40;100410.09;;;-5.16;69.97
71126;BME280;58785;55.566;38.058;2023-02-28T04:57:05;100415.00;;;-5.06;69.90
71126;BME280;58785;55.566;38.058;2023-02-28T04:59:31;100413.13;;;-5.01;70.29
71126;BME280;58785;55.566;38.058;2023-02-28T05:01:57;100406.13;;;-4.99;70.26
71126;BME280;58785;55.566;38.058;2023-02-28T05:04:23;100401.59;;;-4.92;69.66
71126;BME280;58785;55.566;38.058;2023-02-28T05:10:29;100389.13;;;-4.79;69.43
71126;BME280;58785;55.566;38.058;2023-02-28T05:12:55;100383.78;;;-4.75;69.62
71126;BME280;58785;55.566;38.058;2023-02-28T05:15:21;100370.78;;;-4.75;69.41
71126;BME280;58785;55.566;38.058;2023-02-28T05:17:46;100388.56;;;-4.61;69.12
71126;BME280;58785;55.566;38.058;2023-02-28T05:20:12;100370.22;;;-4.56;68.94
71126;BME280;58785;55.566;38.058;2023-02-28T05:22:41;100362.25;;;-4.50;68.82
71126;BME280;58785;55.566;38.058;2023-02-28T05:25:11;100361.09;;;-4.42;69.26
71126;BME280;58785;55.566;38.058;2023-02-28T05:27:39;100347.84;;;-4.34;68.45
71126;BME280;58785;55.566;38.058;2023-02-28T05:30:06;100342.31;;;-4.23;68.29
71126;BME280;58785;55.566;38.058;2023-02-28T05:32:32;100338.59;;;-4.16;68.44
71126;BME280;58785;55.566;38.058;2023-02-28T05:34:57;100321.28;;;-4.17;68.16
71126;BME280;58785;55.566;38.058;2023-02-28T05:37:23;100324.34;;;-4.05;67.81
71126;BME280;58785;55.566;38.058;2023-02-28T05:39:49;100302.47;;;-3.99;67.84
71126;BME280;58785;55.566;38.058;2023-02-28T05:42:15;100297.88;;;-3.92;68.50
71126;BME280;58785;55.566;38.058;2023-02-28T05:44:40;100302.19;;;-3.91;68.00
71126;BME280;58785;55.566;38.058;2023-02-28T05:47:07;100287.31;;;-3.88;67.78
71126;BME280;58785;55.566;38.058;2023-02-28T05:49:33;100275.88;;;-3.84;67.39
71126;BME280;58785;55.566;38.058;2023-02-28T05:51:58;100278.22;;;-3.76;66.91
71126;BME280;58785;55.566;38.058;2023-02-28T05:54:24;100255.50;;;-3.72;67.33
71126;BME280;58785;55.566;38.058;2023-02-28T05:56:49;100257.78;;;-3.63;66.99
71126;BME280;58785;55.566;38.058;2023-02-28T05:59:15;100252.38;;;-3.57;67.17
71126;BME280;58785;55.566;38.058;2023-02-28T06:01:43;100231.53;;;-3.57;66.04
71126;BME280;58785;55.566;38.058;2023-02-28T06:04:15;100210.22;;;-3.68;66.18
71126;BME280;58785;55.566;38.058;2023-02-28T06:06:47;100241.88;;;-3.56;65.99
71126;BME280;58785;55.566;38.058;2023-02-28T06:09:13;100226.78;;;-3.46;66.17
71126;BME280;58785;55.566;38.058;2023-02-28T06:11:39;100219.63;;;-3.41;65.66
71126;BME280;58785;55.566;38.058;2023-02-28T06:14:05;100222.91;;;-3.36;65.63
71126;BME280;58785;55.566;38.058;2023-02-28T06:16:33;100219.19;;;-3.29;65.33
71126;BME280;58785;55.566;38.058;2023-02-28T06:19:01;100217.00;;;-3.17;65.46
71126;BME280;58785;55.566;38.058;2023-02-28T06:21:27;100225.22;;;-3.05;64.74
71126;BME280;58785;55.566;38.058;2023-02-28T06:23:53;100219.41;;;-2.90;64.35
71126;BME280;58785;55.566;38.058;2023-02-28T06:26:19;100213.94;;;-2.83;64.52
71126;BME280;58785;55.566;38.058;2023-02-28T06:28:46;100196.53;;;-2.83;63.77
71126;BME280;58785;55.566;38.058;2023-02-28T06:31:14;100196.28;;;-2.77;64.48
71126;BME280;58785;55.566;38.058;2023-02-28T06:33:40;100178.56;;;-2.69;64.07
71126;BME280;58785;55.566;38.058;2023-02-28T06:36:07;100150.88;;;-2.73;64.03
71126;BME280;58785;55.566;38.058;2023-02-28T06:38:33;100156.84;;;-2.69;63.45
71126;BME280;58785;55.566;38.058;2023-02-28T06:41:00;100150.72;;;-2.68;63.64
71126;BME280;58785;55.566;38.058;2023-02-28T06:43:28;100154.81;;;-2.63;63.43
71126;BME280;58785;55.566;38.058;2023-02-28T06:45:58;100139.97;;;-2.61;62.82
71126;BME280;58785;55.566;38.058;2023-02-28T06:48:26;100143.00;;;-2.51;62.94
71126;BME280;58785;55.566;38.058;2023-02-28T06:50:51;100138.53;;;-2.47;62.73
71126;BME280;58785;55.566;38.058;2023-02-28T06:53:17;100148.56;;;-2.38;62.63
71126;BME280;58785;55.566;38.058;2023-02-28T06:55:43;100137.06;;;-2.34;62.35
71126;BME280;58785;55.566;38.058;2023-02-28T06:58:09;100141.44;;;-2.14;62.40
71126;BME280;58785;55.566;38.058;2023-02-28T07:00:44;100152.25;;;-2.03;61.93
71126;BME280;58785;55.566;38.058;2023-02-28T07:03:12;100150.03;;;-1.92;61.56
71126;BME280;58785;55.566;38.058;2023-02-28T07:05:39;100119.41;;;-1.69;61.55
71126;BME280;58785;55.566;38.058;2023-02-28T07:08:05;100117.84;;;-1.36;60.49
71126;BME280;58785;55.566;38.058;2023-02-28T07:10:33;100101.13;;;-1.14;60.43
71126;BME280;58785;55.566;38.058;2023-02-28T07:13:00;100096.69;;;-0.95;59.65
71126;BME280;58785;55.566;38.058;2023-02-28T07:15:25;100087.31;;;-0.82;59.50
71126;BME280;58785;55.566;38.058;2023-02-28T07:17:51;100086.47;;;-0.65;59.29
71126;BME280;58785;55.566;38.058;2023-02-28T07:20:17;100062.50;;;-0.40;58.44
71126;BME280;58785;55.566;38.058;2023-02-28T07:22:42;100048.41;;;-0.38;58.49
71126;BME280;58785;55.566;38.058;2023-02-28T07:25:08;100059.41;;;0.02;58.32
71126;BME280;58785;55.566;38.058;2023-02-28T07:27:34;100054.09;;;0.35;57.65
71126;BME280;58785;55.566;38.058;2023-02-28T07:30:00;100062.22;;;0.46;57.73
71126;BME280;58785;55.566;38.058;2023-02-28T07:32:29;100048.69;;;0.38;57.67
71126;BME280;58785;55.566;38.058;2023-02-28T07:34:55;100039.72;;;0.42;57.42
71126;BME280;58785;55.566;38.058;2023-02-28T07:37:20;100040.22;;;0.49;57.80
71126;BME280;58785;55.566;38.058;2023-02-28T07:39:46;100020.91;;;0.50;57.73
71126;BME280;58785;55.566;38.058;2023-02-28T07:42:12;100032.75;;;0.57;57.44
71126;BME280;58785;55.566;38.058;2023-02-28T07:44:39;100031.81;;;0.58;57.13
71126;BME280;58785;55.566;38.058;2023-02-28T07:47:07;100015.09;;;0.61;57.49
71126;BME280;58785;55.566;38.058;2023-02-28T07:49:34;100028.34;;;0.57;57.61
71126;BME280;58785;55.566;38.058;2023-02-28T07:51:59;100017.34;;;0.67;57.97
71126;BME280;58785;55.566;38.058;2023-02-28T07:54:25;100008.19;;;0.74;57.42
71126;BME280;58785;55.566;38.058;2023-02-28T07:56:50;99997.09;;;0.69;57.50
71126;BME280;58785;55.566;38.058;2023-02-28T07:59:16;100006.22;;;0.77;57.26
71126;BME280;58785;55.566;38.058;2023-02-28T08:01:42;100000.47;;;0.86;57.41
71126;BME280;58785;55.566;38.058;2023-02-28T08:04:09;99988.28;;;0.85;57.36
71126;BME280;58785;55.566;38.058;2023-02-28T08:06:35;99997.41;;;0.94;57.19
71126;BME280;58785;55.566;38.058;2023-02-28T08:09:01;99993.56;;;1.00;57.28
71126;BME280;58785;55.566;38.058;2023-02-28T08:11:26;99992.94;;;1.10;56.99
71126;BME280;58785;55.566;38.058;2023-02-28T08:13:54;99987.41;;;1.15;56.95
71126;BME280;58785;55.566;38.058;2023-02-28T08:16:20;99994.25;;;1.18;56.72
71126;BME280;58785;55.566;38.058;2023-02-28T08:18:51;99994.28;;;1.32;56.99
71126;BME280;58785;55.566;38.058;2023-02-28T08:21:17;99988.50;;;1.41;56.64
71126;BME280;58785;55.566;38.058;2023-02-28T08:23:45;99981.09;;;1.62;56.94
71126;BME280;58785;55.566;38.058;2023-02-28T08:26:12;99964.78;;;1.98;56.26
71126;BME280;58785;55.566;38.058;2023-02-28T08:28:38;99964.88;;;2.11;56.60
71126;BME280;58785;55.566;38.058;2023-02-28T08:31:09;99955.91;;;2.27;56.04
71126;BME280;58785;55.566;38.058;2023-02-28T08:33:36;99941.50;;;2.33;56.28
71126;BME280;58785;55.566;38.058;2023-02-28T08:36:05;99949.75;;;2.41;56.32
71126;BME280;58785;55.566;38.058;2023-02-28T08:38:31;99937.69;;;2.24;56.30
71126;BME280;58785;55.566;38.058;2023-02-28T08:40:58;99934.53;;;2.05;56.81
71126;BME280;58785;55.566;38.058;2023-02-28T08:43:24;99917.09;;;1.90;57.46
71126;BME280;58785;55.566;38.058;2023-02-28T08:45:53;99920.50;;;1.78;57.96
71126;BME280;58785;55.566;38.058;2023-02-28T08:48:19;99908.88;;;1.67;57.79
71126;BME280;58785;55.566;38.058;2023-02-28T08:50:55;99902.00;;;1.79;57.85
71126;BME280;58785;55.566;38.058;2023-02-28T08:53:20;99895.91;;;1.79;57.79
71126;BME280;58785;55.566;38.058;2023-02-28T08:55:46;99882.66;;;1.80;58.12
71126;BME280;58785;55.566;38.058;2023-02-28T08:58:11;99893.19;;;2.21;57.27
71126;BME280;58785;55.566;38.058;2023-02-28T09:00:37;99886.63;;;2.54;56.57
71126;BME280;58785;55.566;38.058;2023-02-28T09:03:03;99905.16;;;2.52;56.71
71126;BME280;58785;55.566;38.058;2023-02-28T09:05:28;99928.25;;;2.35;57.54
71126;BME280;58785;55.566;38.058;2023-02-28T09:07:55;99948.31;;;2.23;57.58
71126;BME280;58785;55.566;38.058;2023-02-28T09:10:20;99947.13;;;2.14;58.15
71126;BME280;58785;55.566;38.058;2023-02-28T09:12:46;99935.53;;;2.17;57.82
71126;BME280;58785;55.566;38.058;2023-02-28T09:15:12;99934.25;;;2.10;58.11
71126;BME280;58785;55.566;38.058;2023-02-28T09:17:38;99922.88;;;2.09;58.60
71126;BME280;58785;55.566;38.058;2023-02-28T09:20:04;99915.50;;;2.01;58.28
71126;BME280;58785;55.566;38.058;2023-02-28T09:22:30;99913.84;;;1.86;58.42
71126;BME280;58785;55.566;38.058;2023-02-28T09:24:56;99910.69;;;1.67;59.49
71126;BME280;58785;55.566;38.058;2023-02-28T09:27:22;99901.88;;;1.54;59.33
71126;BME280;58785;55.566;38.058;2023-02-28T09:29:48;99888.16;;;1.49;59.99
71126;BME280;58785;55.566;38.058;2023-02-28T09:32:14;99892.88;;;1.43;59.64
71126;BME280;58785;55.566;38.058;2023-02-28T09:34:40;99865.59;;;1.32;60.28
71126;BME280;58785;55.566;38.058;2023-02-28T09:37:06;99877.31;;;1.26;60.18
71126;BME280;58785;55.566;38.058;2023-02-28T09:39:31;99869.06;;;1.18;60.62
71126;BME280;58785;55.566;38.058;2023-02-28T09:41:57;99870.28;;;1.12;60.69
71126;BME280;58785;55.566;38.058;2023-02-28T09:44:36;99868.50;;;1.13;61.19
71126;BME280;58785;55.566;38.058;2023-02-28T09:49:46;99861.56;;;1.12;61.19
71126;BME280;58785;55.566;38.058;2023-02-28T09:52:26;99863.91;;;1.17;61.01
71126;BME280;58785;55.566;38.058;2023-02-28T09:54:53;99863.81;;;1.18;61.12
71126;BME280;58785;55.566;38.058;2023-02-28T09:57:36;99859.13;;;1.23;61.03
71126;BME280;58785;55.566;38.058;2023-02-28T10:05:29;99846.34;;;1.17;61.09
71126;BME280;58785;55.566;38.058;2023-02-28T10:10:36;99843.72;;;1.17;61.93
71126;BME280;58785;55.566;38.058;2023-02-28T10:13:06;99832.59;;;1.13;61.71
71126;BME280;58785;55.566;38.058;2023-02-28T10:15:38;99837.75;;;1.15;61.61
71126;BME280;58785;55.566;38.058;2023-02-28T10:18:08;99826.19;;;1.32;61.46
71126;BME280;58785;55.566;38.058;2023-02-28T10:20:39;99832.56;;;1.42;61.23
71126;BME280;58785;55.566;38.058;2023-02-28T10:23:25;99820.38;;;1.41;61.67
71126;BME280;58785;55.566;38.058;2023-02-28T10:25:59;99825.25;;;1.33;61.67
71126;BME280;58785;55.566;38.058;2023-02-28T10:28:28;99805.34;;;1.29;61.64
71126;BME280;58785;55.566;38.058;2023-02-28T10:30:55;99813.72;;;1.35;61.86
71126;BME280;58785;55.566;38.058;2023-02-28T10:33:32;99804.97;;;1.35;61.64
71126;BME280;58785;55.566;38.058;2023-02-28T10:36:00;99800.47;;;1.37;61.84
71126;BME280;58785;55.566;38.058;2023-02-28T10:38:35;99799.53;;;1.38;62.03
71126;BME280;58785;55.566;38.058;2023-02-28T10:41:05;99794.38;;;1.36;62.15
71126;BME280;58785;55.566;38.058;2023-02-28T10:43:32;99778.06;;;1.31;61.92
71126;BME280;58785;55.566;38.058;2023-02-28T10:48:39;99787.63;;;1.32;62.26
71126;BME280;58785;55.566;38.058;2023-02-28T10:51:10;99783.81;;;1.24;62.61
71126;BME280;58785;55.566;38.058;2023-02-28T11:04:03;99769.84;;;1.09;63.00
71126;BME280;58785;55.566;38.058;2023-02-28T11:06:33;99755.97;;;1.07;62.87
71126;BME280;58785;55.566;38.058;2023-02-28T11:11:57;99755.22;;;1.05;63.18
71126;BME280;58785;55.566;38.058;2023-02-28T11:14:28;99756.91;;;1.06;63.40
71126;BME280;58785;55.566;38.058;2023-02-28T11:17:13;99750.72;;;1.07;62.92
71126;BME280;58785;55.566;38.058;2023-02-28T11:19:45;99735.44;;;0.99;63.46
71126;BME280;58785;55.566;38.058;2023-02-28T11:22:21;99740.16;;;0.94;63.49
71126;BME280;58785;55.566;38.058;2023-02-28T11:24:52;99747.47;;;0.89;63.42
71126;BME280;58785;55.566;38.058;2023-02-28T11:29:59;99738.63;;;0.90;63.88
71126;BME280;58785;55.566;38.058;2023-02-28T11:32:27;99732.47;;;0.91;63.61
71126;BME280;58785;55.566;38.058;2023-02-28T11:37:35;99731.38;;;0.81;63.55
71126;BME280;58785;55.566;38.058;2023-02-28T11:40:01;99732.00;;;0.84;63.89
71126;BME280;58785;55.566;38.058;2023-02-28T11:42:52;99729.47;;;0.83;64.08
71126;BME280;58785;55.566;38.058;2023-02-28T11:45:59;99733.88;;;0.82;64.22
71126;BME280;58785;55.566;38.058;2023-02-28T11:51:34;99713.06;;;0.79;64.44
71126;BME280;58785;55.566;38.058;2023-02-28T11:56:47;99701.38;;;0.71;64.45
71126;BME280;58785;55.566;38.058;2023-02-28T12:05:20;99699.75;;;0.97;64.69
71126;BME280;58785;55.566;38.058;2023-02-28T12:07:55;99689.34;;;0.95;64.41
71126;BME280;58785;55.566;38.058;2023-02-28T12:10:27;99717.91;;;1.00;64.58
71126;BME280;58785;55.566;38.058;2023-02-28T12:13:24;99701.03;;;1.04;65.17
71126;BME280;58785;55.566;38.058;2023-02-28T12:16:43;99699.91;;;1.08;64.71
71126;BME280;58785;55.566;38.058;2023-02-28T12:19:22;99696.53;;;1.06;65.19
71126;BME280;58785;55.566;38.058;2023-02-28T12:22:01;99687.72;;;1.07;65.30
71126;BME280;58785;55.566;38.058;2023-02-28T12:27:29;99685.94;;;1.07;65.83
71126;BME280;58785;55.566;38.058;2023-02-28T12:30:05;99679.72;;;1.08;65.38
71126;BME280;58785;55.566;38.058;2023-02-28T12:32:44;99670.38;;;1.04;65.25
71126;BME280;58785;55.566;38.058;2023-02-28T12:35:15;99655.84;;;0.99;65.51
71126;BME280;58785;55.566;38.058;2023-02-28T12:37:44;99675.00;;;1.01;65.78
71126;BME280;58785;55.566;38.058;2023-02-28T12:40:20;99663.00;;;0.97;65.80
71126;BME280;58785;55.566;38.058;2023-02-28T12:42:56;99670.47;;;1.03;66.14
71126;BME280;58785;55.566;38.058;2023-02-28T12:45:37;99667.13;;;1.01;66.06
71126;BME280;58785;55.566;38.058;2023-02-28T12:48:13;99658.16;;;0.91;66.37
71126;BME280;58785;55.566;38.058;2023-02-28T12:50:40;99651.19;;;0.90;66.60
71126;BME280;58785;55.566;38.058;2023-02-28T12:53:13;99644.56;;;0.84;66.42
71126;BME280;58785;55.566;38.058;2023-02-28T13:09:30;99614.19;;;0.80;66.54
71126;BME280;58785;55.566;38.058;2023-02-28T13:11:57;99615.34;;;0.76;67.64
71126;BME280;58785;55.566;38.058;2023-02-28T13:22:37;99577.41;;;0.67;67.71
71126;BME280;58785;55.566;38.058;2023-02-28T13:27:49;99585.03;;;0.57;68.19
71126;BME280;58785;55.566;38.058;2023-02-28T13:35:46;99575.09;;;0.48;68.48
71126;BME280;58785;55.566;38.058;2023-02-28T13:38:17;99585.31;;;0.53;68.76
71126;BME280;58785;55.566;38.058;2023-02-28T13:40:43;99594.50;;;0.46;69.15
71126;BME280;58785;55.566;38.058;2023-02-28T13:43:09;99586.19;;;0.39;69.12
71126;BME280;58785;55.566;38.058;2023-02-28T13:45:34;99581.59;;;0.43;68.99
71126;BME280;58785;55.566;38.058;2023-02-28T13:48:18;99571.94;;;0.43;69.02
71126;BME280;58785;55.566;38.058;2023-02-28T13:50:44;99554.72;;;0.39;69.17
71126;BME280;58785;55.566;38.058;2023-02-28T14:06:55;99543.09;;;0.43;69.49
71126;BME280;58785;55.566;38.058;2023-02-28T14:11:57;99545.41;;;0.48;69.52
71126;BME280;58785;55.566;38.058;2023-02-28T14:17:14;99544.78;;;0.44;70.00
71126;BME280;58785;55.566;38.058;2023-02-28T14:19:44;99555.16;;;0.46;69.95
71126;BME280;58785;55.566;38.058;2023-02-28T14:25:18;99558.63;;;0.46;69.73
71126;BME280;58785;55.566;38.058;2023-02-28T14:27:57;99545.06;;;0.40;69.98
71126;BME280;58785;55.566;38.058;2023-02-28T14:33:20;99536.44;;;0.38;70.24
71126;BME280;58785;55.566;38.058;2023-02-28T14:36:10;99528.00;;;0.47;69.96
71126;BME280;58785;55.566;38.058;2023-02-28T14:38:51;99522.13;;;0.43;70.21
71126;BME280;58785;55.566;38.058;2023-02-28T14:41:36;99526.31;;;0.46;70.32
71126;BME280;58785;55.566;38.058;2023-02-28T14:44:18;99509.84;;;0.44;70.29
71126;BME280;58785;55.566;38.058;2023-02-28T14:46:44;99511.53;;;0.45;70.22
71126;BME280;58785;55.566;38.058;2023-02-28T14:49:34;99519.09;;;0.49;70.41
71126;BME280;58785;55.566;38.058;2023-02-28T14:52:26;99503.06;;;0.54;70.27
71126;BME280;58785;55.566;38.058;2023-02-28T14:54:56;99496.31;;;0.50;70.18
71126;BME280;58785;55.566;38.058;2023-02-28T14:57:31;99495.09;;;0.55;70.46
71126;BME280;58785;55.566;38.058;2023-02-28T15:00:06;99502.66;;;0.60;70.40
71126;BME280;58785;55.566;38.058;2023-02-28T15:02:37;99488.06;;;0.56;70.81
71126;BME280;58785;55.566;38.058;2023-02-28T15:07:35;99494.88;;;0.58;71.01
71126;BME280;58785;55.566;38.058;2023-02-28T15:10:27;99494.50;;;0.65;71.41
71126;BME280;58785;55.566;38.058;2023-02-28T15:12:56;99492.72;;;0.65;71.19
71126;BME280;58785;55.566;38.058;2023-02-28T15:15:53;99494.28;;;0.68;71.28